createdAt,value
2022-07-28T00:00:54.677Z,1021.370056
2022-07-28T00:02:01.588Z,1021.381226
2022-07-28T00:02:54.026Z,1021.346313
2022-07-28T00:03:55.622Z,1021.338135
2022-07-28T00:04:50.096Z,1021.357361
2022-07-28T00:05:52.529Z,1021.319336
2022-07-28T00:06:46.814Z,1021.335205
2022-07-28T00:07:46.976Z,1021.330322
2022-07-28T00:08:49.189Z,1021.383118
2022-07-28T00:09:50.187Z,1021.308167
2022-07-28T00:11:25.216Z,1021.315979
2022-07-28T00:13:27.898Z,1021.279236
2022-07-28T00:14:26.238Z,1021.269409
2022-07-28T00:16:09.972Z,1021.241028
2022-07-28T00:16:49.381Z,1021.258545
2022-07-28T00:17:48.606Z,1021.229431
2022-07-28T00:18:50.203Z,1021.253601
2022-07-28T00:19:46.361Z,1021.262878
2022-07-28T00:20:45.526Z,1021.270508
2022-07-28T00:22:41.083Z,1021.254517
2022-07-28T00:23:39.400Z,1021.244568
2022-07-28T00:24:39.331Z,1021.26532
2022-07-28T00:25:39.174Z,1021.252747
2022-07-28T00:26:38.726Z,1021.274902
2022-07-28T00:28:39.851Z,1021.201294
2022-07-28T00:29:49.256Z,1021.254089
2022-07-28T00:29:50.226Z,1021.254089
2022-07-28T00:29:50.989Z,1021.254089
2022-07-28T00:30:36.416Z,1021.188904
2022-07-28T00:31:38.542Z,1021.298401
2022-07-28T00:32:30.070Z,1021.252747
2022-07-28T00:33:29.146Z,1021.209717
2022-07-28T00:34:26.623Z,1021.274841
2022-07-28T00:35:30.298Z,1021.206238
2022-07-28T00:35:30.964Z,1021.206238
2022-07-28T00:36:24.726Z,1021.233337
2022-07-28T00:37:17.838Z,1021.229919
2022-07-28T00:38:17.007Z,1021.175659
2022-07-28T00:39:13.660Z,1021.192993
2022-07-28T00:40:13.224Z,1021.204041
2022-07-28T00:41:14.981Z,1021.226807
2022-07-28T00:42:15.661Z,1021.191589
2022-07-28T00:43:11.031Z,1021.208923
2022-07-28T00:44:14.249Z,1021.231201
2022-07-28T00:45:16.259Z,1021.302551
2022-07-28T00:46:08.140Z,1021.221375
2022-07-28T00:47:09.306Z,1021.121338
2022-07-28T00:48:01.921Z,1021.186401
2022-07-28T00:49:01.640Z,1021.197571
2022-07-28T00:49:57.043Z,1021.176758
2022-07-28T00:51:00.287Z,1021.160828
2022-07-28T00:52:55.870Z,1021.121277
2022-07-28T00:53:55.791Z,1021.105286
2022-07-28T00:54:54.191Z,1021.135071
2022-07-28T00:56:05.483Z,1021.130127
2022-07-28T00:56:05.996Z,1021.130127
2022-07-28T00:56:06.085Z,1021.130127
2022-07-28T00:56:51.457Z,1021.189087
2022-07-28T00:57:47.571Z,1021.115173
2022-07-28T00:58:45.673Z,1021.06366
2022-07-28T00:59:49.409Z,1021.110168
2022-07-28T01:01:15.035Z,1021.010925
2022-07-28T01:01:55.565Z,1021.052612
2022-07-28T01:02:56.757Z,1020.991028
2022-07-28T01:03:56.449Z,1021.018005
2022-07-28T01:04:57.395Z,1021.042847
2022-07-28T01:06:00.702Z,1021.065002
2022-07-28T01:07:57.828Z,1021.02063
2022-07-28T01:08:56.954Z,1020.988708
2022-07-28T01:09:57.358Z,1021.030029
2022-07-28T01:10:52.456Z,1021.009216
2022-07-28T01:11:55.368Z,1020.979004
2022-07-28T01:12:52.340Z,1021.04895
2022-07-28T01:13:52.710Z,1021.025208
2022-07-28T01:14:49.014Z,1021.047241
2022-07-28T01:15:51.181Z,1020.985168
2022-07-28T01:17:52.665Z,1021.04248
2022-07-28T01:18:48.886Z,1021.007202
2022-07-28T01:19:51.731Z,1020.910278
2022-07-28T01:20:48.022Z,1020.92627
2022-07-28T01:22:43.042Z,1020.959473
2022-07-28T01:23:53.147Z,1020.989685
2022-07-28T01:24:55.856Z,1020.993225
2022-07-28T01:25:49.987Z,1020.966187
2022-07-28T01:27:49.581Z,1021.024597
2022-07-28T01:28:51.836Z,1021.026306
2022-07-28T01:29:46.027Z,1020.990906
2022-07-28T01:30:47.890Z,1021.053406
2022-07-28T01:31:40.699Z,1020.957642
2022-07-28T01:32:45.250Z,1021.000732
2022-07-28T01:33:45.315Z,1020.968933
2022-07-28T01:34:42.143Z,1020.999329
2022-07-28T01:35:49.571Z,1020.983459
2022-07-28T01:36:40.010Z,1020.979919
2022-07-28T01:38:39.534Z,1020.993225
2022-07-28T01:39:35.412Z,1020.968933
2022-07-28T01:40:35.961Z,1021.026306
2022-07-28T01:42:06.585Z,1020.972351
2022-07-28T01:42:47.556Z,1020.977234
2022-07-28T01:43:53.232Z,1021.029541
2022-07-28T01:44:50.715Z,1020.889404
2022-07-28T01:45:51.172Z,1020.966187
2022-07-28T01:48:08.360Z,1020.961365
2022-07-28T01:48:48.422Z,1020.961365
2022-07-28T01:49:50.333Z,1020.941772
2022-07-28T01:50:51.882Z,1020.914795
2022-07-28T01:51:47.142Z,1020.907288
2022-07-28T01:52:47.894Z,1020.893921
2022-07-28T01:53:44.261Z,1020.873047
2022-07-28T01:54:44.102Z,1020.927124
2022-07-28T01:55:46.913Z,1020.936768
2022-07-28T01:57:43.503Z,1020.947876
2022-07-28T01:58:48.346Z,1020.935059
2022-07-28T01:59:43.668Z,1020.903198
2022-07-28T02:00:46.657Z,1020.903198
2022-07-28T02:02:45.171Z,1020.896973
2022-07-28T02:03:41.424Z,1020.845947
2022-07-28T02:04:49.153Z,1020.77594
2022-07-28T02:05:45.462Z,1020.895142
2022-07-28T02:06:45.066Z,1020.841125
2022-07-28T02:07:44.234Z,1020.812378
2022-07-28T02:08:43.342Z,1020.826416
2022-07-28T02:09:39.664Z,1020.821472
2022-07-28T02:10:42.599Z,1020.837341
2022-07-28T02:11:40.299Z,1020.828369
2022-07-28T02:12:36.516Z,1020.736206
2022-07-28T02:13:38.703Z,1020.731262
2022-07-28T02:14:31.294Z,1020.715332
2022-07-28T02:15:36.504Z,1020.718323
2022-07-28T02:16:29.168Z,1020.694763
2022-07-28T02:17:27.393Z,1020.655029
2022-07-28T02:18:31.610Z,1020.737061
2022-07-28T02:19:33.562Z,1020.684143
2022-07-28T02:20:26.207Z,1020.733337
2022-07-28T02:21:23.387Z,1020.736816
2022-07-28T02:23:19.600Z,1020.771423
2022-07-28T02:24:19.031Z,1020.712524
2022-07-28T02:25:22.038Z,1020.77002
2022-07-28T02:26:24.627Z,1020.77002
2022-07-28T02:28:42.546Z,1020.672913
2022-07-28T02:29:50.671Z,1020.648499
2022-07-28T02:29:50.863Z,1020.648499
2022-07-28T02:29:51.821Z,1020.648499
2022-07-28T02:30:34.430Z,1020.623779
2022-07-28T02:32:49.207Z,1020.628784
2022-07-28T02:33:59.143Z,1020.615417
2022-07-28T02:33:59.352Z,1020.615417
2022-07-28T02:34:00.370Z,1020.615417
2022-07-28T02:34:46.748Z,1020.628784
2022-07-28T02:35:43.031Z,1020.625183
2022-07-28T02:36:43.719Z,1020.579102
2022-07-28T02:38:43.489Z,1020.625183
2022-07-28T02:39:38.811Z,1020.628784
2022-07-28T02:40:38.793Z,1020.599487
2022-07-28T02:41:36.775Z,1020.648499
2022-07-28T02:43:49.631Z,1020.57251
2022-07-28T02:43:49.679Z,1020.57251
2022-07-28T02:44:41.470Z,1020.604492
2022-07-28T02:45:41.836Z,1020.51239
2022-07-28T02:46:38.346Z,1020.558899
2022-07-28T02:48:39.624Z,1020.556335
2022-07-28T02:49:39.712Z,1020.533752
2022-07-28T02:50:35.602Z,1020.598816
2022-07-28T02:51:37.780Z,1020.523865
2022-07-28T02:52:36.120Z,1020.534851
2022-07-28T02:53:45.431Z,1020.478943
2022-07-28T02:54:40.754Z,1020.536133
2022-07-28T02:55:38.244Z,1020.520203
2022-07-28T02:56:37.956Z,1020.517578
2022-07-28T02:57:36.772Z,1020.617126
2022-07-28T02:58:33.317Z,1020.550659
2022-07-28T02:59:41.512Z,1020.588745
2022-07-28T03:00:34.423Z,1020.519836
2022-07-28T03:01:39.461Z,1020.497864
2022-07-28T03:03:46.806Z,1020.518127
2022-07-28T03:04:47.173Z,1020.581055
2022-07-28T03:06:41.526Z,1020.606934
2022-07-28T03:07:24.735Z,1020.478394
2022-07-28T03:08:33.067Z,1020.578857
2022-07-28T03:09:35.952Z,1020.538391
2022-07-28T03:10:32.975Z,1020.548096
2022-07-28T03:11:28.626Z,1020.682983
2022-07-28T03:13:27.731Z,1020.654114
2022-07-28T03:14:24.956Z,1020.67627
2022-07-28T03:15:28.518Z,1020.658264
2022-07-28T03:16:23.882Z,1020.637878
2022-07-28T03:17:23.022Z,1020.714355
2022-07-28T03:18:24.309Z,1020.60144
2022-07-28T03:19:20.982Z,1020.661316
2022-07-28T03:20:17.869Z,1020.645447
2022-07-28T03:21:23.496Z,1020.630554
2022-07-28T03:23:20.588Z,1020.589966
2022-07-28T03:24:23.130Z,1020.587585
2022-07-28T03:25:24.784Z,1020.593689
2022-07-28T03:26:20.979Z,1020.591125
2022-07-28T03:28:17.770Z,1020.576538
2022-07-28T03:29:16.732Z,1020.625671
2022-07-28T03:30:20.539Z,1020.602051
2022-07-28T03:31:20.577Z,1020.604797
2022-07-28T03:33:23.193Z,1020.588623
2022-07-28T03:34:23.590Z,1020.577698
2022-07-28T03:35:19.311Z,1020.619202
2022-07-28T03:36:17.477Z,1020.641113
2022-07-28T03:37:18.504Z,1020.684204
2022-07-28T03:38:12.733Z,1020.664673
2022-07-28T03:39:15.009Z,1020.664673
2022-07-28T03:40:07.355Z,1020.753967
2022-07-28T03:41:09.910Z,1020.727051
2022-07-28T03:43:07.045Z,1020.696594
2022-07-28T03:44:01.785Z,1020.723572
2022-07-28T03:44:57.933Z,1020.689087
2022-07-28T03:46:22.246Z,1020.696594
2022-07-28T03:48:04.359Z,1020.731995
2022-07-28T03:49:00.733Z,1020.689087
2022-07-28T03:50:02.693Z,1020.689087
2022-07-28T03:50:58.101Z,1020.679138
2022-07-28T03:51:59.800Z,1020.637756
2022-07-28T03:52:55.155Z,1020.716064
2022-07-28T03:54:02.814Z,1020.698364
2022-07-28T03:54:57.195Z,1020.725342
2022-07-28T03:55:55.877Z,1020.733154
2022-07-28T03:58:00.661Z,1020.671326
2022-07-28T03:58:55.779Z,1020.682251
2022-07-28T03:59:58.324Z,1020.685242
2022-07-28T04:00:52.027Z,1020.658203
2022-07-28T04:02:48.723Z,1020.679138
2022-07-28T04:03:48.097Z,1020.677307
2022-07-28T04:04:53.675Z,1020.705322
2022-07-28T04:05:48.995Z,1020.692383
2022-07-28T04:07:49.346Z,1020.665405
2022-07-28T04:08:45.038Z,1020.560547
2022-07-28T04:09:51.109Z,1020.61792
2022-07-28T04:10:46.204Z,1020.633972
2022-07-28T04:11:50.984Z,1020.592529
2022-07-28T04:12:50.929Z,1020.609558
2022-07-28T04:13:56.244Z,1020.645935
2022-07-28T04:14:57.064Z,1020.573608
2022-07-28T04:15:57.975Z,1020.577942
2022-07-28T04:18:03.507Z,1020.555786
2022-07-28T04:18:56.228Z,1020.559021
2022-07-28T04:19:57.154Z,1020.60199
2022-07-28T04:21:41.482Z,1020.540649
2022-07-28T04:22:22.591Z,1020.576538
2022-07-28T04:23:21.669Z,1020.48468
2022-07-28T04:24:22.023Z,1020.526062
2022-07-28T04:25:22.166Z,1020.564026
2022-07-28T04:26:24.295Z,1020.575073
2022-07-28T04:28:26.349Z,1020.539612
2022-07-28T04:29:23.260Z,1020.612976
2022-07-28T04:30:18.170Z,1020.550598
2022-07-28T04:31:20.311Z,1020.512634
2022-07-28T04:33:26.273Z,1020.574951
2022-07-28T04:34:22.158Z,1020.566528
2022-07-28T04:35:21.338Z,1020.601929
2022-07-28T04:36:17.380Z,1020.574951
2022-07-28T04:37:16.357Z,1020.494263
2022-07-28T04:38:11.768Z,1020.440125
2022-07-28T04:39:10.970Z,1020.528748
2022-07-28T04:40:06.952Z,1020.598511
2022-07-28T04:41:05.762Z,1020.554138
2022-07-28T04:42:01.172Z,1020.61792
2022-07-28T04:43:02.651Z,1020.59967
2022-07-28T04:43:55.202Z,1020.66687
2022-07-28T04:44:58.447Z,1020.608032
2022-07-28T04:45:53.871Z,1020.653564
2022-07-28T04:46:49.983Z,1020.598511
2022-07-28T04:47:46.809Z,1020.676331
2022-07-28T04:48:49.514Z,1020.676331
2022-07-28T04:49:45.296Z,1020.635376
2022-07-28T04:50:47.835Z,1020.64325
2022-07-28T04:51:40.342Z,1020.675232
2022-07-28T04:53:37.264Z,1020.736206
2022-07-28T04:54:40.176Z,1020.7901
2022-07-28T04:56:06.827Z,1020.714233
2022-07-28T04:56:46.928Z,1020.615601
2022-07-28T04:58:43.063Z,1020.656067
2022-07-28T04:59:40.269Z,1020.709961
2022-07-28T05:00:40.488Z,1020.694092
2022-07-28T05:01:35.828Z,1020.606262
2022-07-28T05:03:36.413Z,1020.685242
2022-07-28T05:04:30.345Z,1020.696167
2022-07-28T05:05:28.998Z,1020.680176
2022-07-28T05:06:28.835Z,1020.672302
2022-07-28T05:08:27.630Z,1020.685242
2022-07-28T05:09:20.127Z,1020.639404
2022-07-28T05:10:17.657Z,1020.644348
2022-07-28T05:11:16.746Z,1020.655273
2022-07-28T05:13:16.867Z,1020.630188
2022-07-28T05:14:23.610Z,1020.619202
2022-07-28T05:15:18.933Z,1020.631531
2022-07-28T05:16:18.373Z,1020.666931
2022-07-28T05:17:13.705Z,1020.654907
2022-07-28T05:18:18.338Z,1020.603516
2022-07-28T05:19:21.910Z,1020.662354
2022-07-28T05:20:16.194Z,1020.637817
2022-07-28T05:21:22.422Z,1020.61084
2022-07-28T05:22:14.495Z,1020.67627
2022-07-28T05:23:14.704Z,1020.630066
2022-07-28T05:24:09.948Z,1020.641174
2022-07-28T05:25:09.463Z,1020.687256
2022-07-28T05:26:05.625Z,1020.614197
2022-07-28T05:28:02.624Z,1020.665222
2022-07-28T05:29:02.440Z,1020.654114
2022-07-28T05:29:57.150Z,1020.654114
2022-07-28T05:30:58.195Z,1020.643127
2022-07-28T05:32:57.770Z,1020.617981
2022-07-28T05:33:51.287Z,1020.659119
2022-07-28T05:34:50.797Z,1020.514282
2022-07-28T05:35:45.988Z,1020.654114
2022-07-28T05:36:47.995Z,1020.60199
2022-07-28T05:39:42.898Z,1020.547058
2022-07-28T05:40:24.555Z,1020.55072
2022-07-28T05:41:23.823Z,1020.565613
2022-07-28T05:43:25.149Z,1020.601624
2022-07-28T05:44:26.374Z,1020.566895
2022-07-28T05:45:25.417Z,1020.528748
2022-07-28T05:46:26.436Z,1020.555786
2022-07-28T05:47:26.720Z,1020.543579
2022-07-28T05:48:27.888Z,1020.551392
2022-07-28T05:49:24.326Z,1020.481445
2022-07-28T05:50:27.996Z,1020.503479
2022-07-28T05:51:22.210Z,1020.522705
2022-07-28T05:52:24.012Z,1020.486328
2022-07-28T05:53:20.567Z,1020.505554
2022-07-28T05:54:22.155Z,1020.547974
2022-07-28T05:55:18.528Z,1020.516541
2022-07-28T05:56:20.234Z,1020.516541
2022-07-28T05:57:16.790Z,1020.514893
2022-07-28T05:58:18.179Z,1020.453186
2022-07-28T05:59:14.594Z,1020.45813
2022-07-28T06:00:18.816Z,1020.501038
2022-07-28T06:01:13.032Z,1020.431152
2022-07-28T06:03:11.628Z,1020.49762
2022-07-28T06:04:26.889Z,1020.508606
2022-07-28T06:04:27.921Z,1020.508606
2022-07-28T06:04:28.574Z,1020.508606
2022-07-28T06:05:14.687Z,1020.502502
2022-07-28T06:06:16.266Z,1020.550354
2022-07-28T06:06:16.954Z,1020.550354
2022-07-28T06:08:09.596Z,1020.453369
2022-07-28T06:08:46.802Z,1020.456909
2022-07-28T06:09:46.863Z,1020.502502
2022-07-28T06:10:43.368Z,1020.459534
2022-07-28T06:11:44.748Z,1020.496277
2022-07-28T06:13:40.297Z,1020.443359
2022-07-28T06:14:41.639Z,1020.511597
2022-07-28T06:16:18.643Z,1020.497314
2022-07-28T06:17:56.458Z,1020.491577
2022-07-28T06:18:55.649Z,1020.506104
2022-07-28T06:19:53.525Z,1020.459534
2022-07-28T06:20:48.838Z,1020.456909
2022-07-28T06:21:48.451Z,1020.442261
2022-07-28T06:23:43.462Z,1020.472961
2022-07-28T06:24:38.797Z,1020.396912
2022-07-28T06:25:38.753Z,1020.482849
2022-07-28T06:26:35.452Z,1020.433655
2022-07-28T06:27:37.937Z,1020.322754
2022-07-28T06:28:30.605Z,1020.397583
2022-07-28T06:29:33.473Z,1020.407043
2022-07-28T06:30:26.071Z,1020.40094
2022-07-28T06:31:26.135Z,1020.36438
2022-07-28T06:32:22.310Z,1020.368103
2022-07-28T06:33:21.527Z,1020.345886
2022-07-28T06:34:17.215Z,1020.423462
2022-07-28T06:35:17.284Z,1020.418457
2022-07-28T06:36:13.488Z,1020.444275
2022-07-28T06:38:10.892Z,1020.454041
2022-07-28T06:39:06.514Z,1020.509705
2022-07-28T06:40:05.832Z,1020.479736
2022-07-28T06:41:01.003Z,1020.481384
2022-07-28T06:41:58.498Z,1020.535339
2022-07-28T06:42:58.751Z,1020.573608
2022-07-28T06:43:54.658Z,1020.446411
2022-07-28T06:44:59.023Z,1020.518066
2022-07-28T06:44:59.878Z,1020.518066
2022-07-28T06:45:55.968Z,1020.480103
2022-07-28T06:46:49.032Z,1020.470215
2022-07-28T06:49:29.640Z,1020.439087
2022-07-28T06:50:24.863Z,1020.318359
2022-07-28T06:50:26.446Z,1020.318359
2022-07-28T06:51:11.303Z,1020.345581
2022-07-28T06:52:07.408Z,1020.39624
2022-07-28T06:53:07.484Z,1020.431396
2022-07-28T06:54:11.046Z,1020.452148
2022-07-28T06:55:03.130Z,1020.475891
2022-07-28T06:56:03.915Z,1020.512634
2022-07-28T06:57:01.650Z,1020.486755
2022-07-28T06:58:05.115Z,1020.47937
2022-07-28T06:58:58.486Z,1020.523926
2022-07-28T06:59:59.270Z,1020.474426
2022-07-28T07:00:55.564Z,1020.51001
2022-07-28T07:01:56.095Z,1020.487793
2022-07-28T07:02:52.224Z,1020.473022
2022-07-28T07:03:51.621Z,1020.407776
2022-07-28T07:04:53.535Z,1020.514526
2022-07-28T07:05:49.037Z,1020.446045
2022-07-28T07:06:48.110Z,1020.415894
2022-07-28T07:07:44.310Z,1020.470032
2022-07-28T07:08:45.053Z,1020.412659
2022-07-28T07:09:43.580Z,1020.439758
2022-07-28T07:10:39.734Z,1020.344055
2022-07-28T07:11:42.816Z,1020.353699
2022-07-28T07:13:37.139Z,1020.39856
2022-07-28T07:14:33.643Z,1020.396423
2022-07-28T07:15:35.257Z,1020.390076
2022-07-28T07:16:31.508Z,1020.436401
2022-07-28T07:17:32.606Z,1020.442749
2022-07-28T07:18:28.981Z,1020.517578
2022-07-28T07:19:32.465Z,1020.457092
2022-07-28T07:20:27.725Z,1020.393372
2022-07-28T07:21:28.498Z,1020.340881
2022-07-28T07:23:26.035Z,1020.362976
2022-07-28T07:24:22.755Z,1020.37262
2022-07-28T07:25:26.808Z,1020.286072
2022-07-28T07:26:21.102Z,1020.265198
2022-07-28T07:28:18.996Z,1020.274292
2022-07-28T07:29:20.593Z,1020.201355
2022-07-28T07:30:17.786Z,1020.218445
2022-07-28T07:31:21.875Z,1020.259705
2022-07-28T07:33:40.682Z,1020.248535
2022-07-28T07:34:21.105Z,1020.254395
2022-07-28T07:35:20.931Z,1020.173279
2022-07-28T07:36:21.222Z,1020.169312
2022-07-28T07:37:17.691Z,1020.260132
2022-07-28T07:38:19.033Z,1020.211609
2022-07-28T07:39:15.479Z,1020.098572
2022-07-28T07:40:17.011Z,1020.263672
2022-07-28T07:41:14.162Z,1020.16626
2022-07-28T07:42:15.053Z,1020.094055
2022-07-28T07:43:11.568Z,1020.173279
2022-07-28T07:44:16.164Z,1020.093323
2022-07-28T07:45:10.130Z,1020.096252
2022-07-28T07:46:11.787Z,1020.115295
2022-07-28T07:48:10.034Z,1020.080688
2022-07-28T07:49:07.719Z,1020.042297
2022-07-28T07:50:09.543Z,1020.13678
2022-07-28T07:51:15.030Z,1020.118774
2022-07-28T07:51:15.610Z,1020.118774
2022-07-28T07:53:08.004Z,1019.979858
2022-07-28T07:54:05.306Z,1020.084106
2022-07-28T07:55:06.559Z,1020.023193
2022-07-28T07:56:06.521Z,1020.030518
2022-07-28T07:58:05.665Z,1019.979004
2022-07-28T07:59:02.596Z,1020.096863
2022-07-28T08:00:07.069Z,1020.01001
2022-07-28T08:01:02.144Z,1019.949097
2022-07-28T08:02:03.501Z,1019.947083
2022-07-28T08:03:00.145Z,1019.878967
2022-07-28T08:04:01.926Z,1019.957153
2022-07-28T08:04:58.978Z,1019.933289
2022-07-28T08:06:00.825Z,1019.978943
2022-07-28T08:08:00.052Z,1019.925415
2022-07-28T08:08:57.142Z,1019.985596
2022-07-28T08:09:59.456Z,1019.932617
2022-07-28T08:10:56.691Z,1019.989136
2022-07-28T08:12:01.173Z,1019.93927
2022-07-28T08:14:00.469Z,1019.94928
2022-07-28T08:14:55.639Z,1019.880188
2022-07-28T08:16:00.231Z,1019.897461
2022-07-28T08:16:54.897Z,1019.912781
2022-07-28T08:17:57.044Z,1019.84967
2022-07-28T08:18:55.141Z,1019.882507
2022-07-28T08:19:56.653Z,1019.863403
2022-07-28T08:20:54.002Z,1019.867188
2022-07-28T08:21:56.289Z,1019.898376
2022-07-28T08:22:53.538Z,1019.911072
2022-07-28T08:23:55.788Z,1019.898376
2022-07-28T08:24:53.766Z,1019.918884
2022-07-28T08:25:58.274Z,1019.827271
2022-07-28T08:26:53.619Z,1019.876099
2022-07-28T08:29:36.585Z,1019.947388
2022-07-28T08:30:17.137Z,1019.884033
2022-07-28T08:30:23.174Z,1019.884033
2022-07-28T08:31:15.881Z,1019.951599
2022-07-28T08:32:16.727Z,1019.928894
2022-07-28T08:33:12.774Z,1019.944763
2022-07-28T08:34:26.386Z,1019.922119
2022-07-28T08:34:31.130Z,1019.922119
2022-07-28T08:35:32.412Z,1019.930542
2022-07-28T08:35:32.808Z,1019.930542
2022-07-28T08:35:33.049Z,1019.930542
2022-07-28T08:36:11.133Z,1019.903992
2022-07-28T08:37:07.692Z,1019.874573
2022-07-28T08:38:08.583Z,1019.865845
2022-07-28T08:39:05.278Z,1019.861389
2022-07-28T08:40:05.805Z,1019.759216
2022-07-28T08:41:02.003Z,1019.818298
2022-07-28T08:41:59.960Z,1019.800781
2022-07-28T08:43:00.588Z,1019.768005
2022-07-28T08:43:56.848Z,1019.733215
2022-07-28T08:44:57.045Z,1019.815552
2022-07-28T08:45:58.135Z,1019.800781
2022-07-28T08:45:58.744Z,1019.800781
2022-07-28T08:46:56.269Z,1019.762146
2022-07-28T08:48:50.827Z,1019.81366
2022-07-28T08:49:47.061Z,1019.772766
2022-07-28T08:50:45.598Z,1019.726196
2022-07-28T08:51:46.539Z,1019.761536
2022-07-28T08:53:43.554Z,1019.719421
2022-07-28T08:54:39.567Z,1019.761536
2022-07-28T08:55:42.923Z,1019.765503
2022-07-28T08:56:36.470Z,1019.690002
2022-07-28T08:58:35.514Z,1019.746643
2022-07-28T08:59:31.638Z,1019.776245
2022-07-28T09:00:34.817Z,1019.742065
2022-07-28T09:01:38.918Z,1019.683044
2022-07-28T09:01:38.946Z,1019.683044
2022-07-28T09:01:39.198Z,1019.683044
2022-07-28T09:03:33.356Z,1019.684814
2022-07-28T09:03:59.392Z,1019.752808
2022-07-28T09:05:00.463Z,1019.782166
2022-07-28T09:05:56.539Z,1019.721436
2022-07-28T09:06:56.805Z,1019.766846
2022-07-28T09:08:53.010Z,1019.702881
2022-07-28T09:09:48.696Z,1019.693848
2022-07-28T09:10:49.503Z,1019.70636
2022-07-28T09:11:45.115Z,1019.756287
2022-07-28T09:13:40.938Z,1019.593872
2022-07-28T09:14:41.677Z,1019.590515
2022-07-28T09:15:37.302Z,1019.621094
2022-07-28T09:16:37.833Z,1019.568115
2022-07-28T09:17:33.209Z,1019.55603
2022-07-28T09:18:33.659Z,1019.683044
2022-07-28T09:19:34.489Z,1019.59082
2022-07-28T09:20:29.976Z,1019.613586
2022-07-28T09:21:26.027Z,1019.629395
2022-07-28T09:23:42.158Z,1019.636841
2022-07-28T09:23:42.516Z,1019.636841
2022-07-28T09:23:43.342Z,1019.636841
2022-07-28T09:24:24.958Z,1019.606018
2022-07-28T09:25:18.279Z,1019.481262
2022-07-28T09:26:18.401Z,1019.531128
2022-07-28T09:28:14.168Z,1019.584595
2022-07-28T09:29:09.494Z,1019.625183
2022-07-28T09:30:09.735Z,1019.605713
2022-07-28T09:31:05.055Z,1019.617004
2022-07-28T09:32:03.063Z,1019.600159
2022-07-28T09:33:58.197Z,1019.609314
2022-07-28T09:34:58.431Z,1019.495178
2022-07-28T09:35:53.791Z,1019.505005
2022-07-28T09:36:56.644Z,1019.533508
2022-07-28T09:37:49.452Z,1019.4599
2022-07-28T09:38:52.339Z,1019.413269
2022-07-28T09:39:45.118Z,1019.51532
2022-07-28T09:40:48.170Z,1019.388184
2022-07-28T09:41:42.335Z,1019.404907
2022-07-28T09:43:37.351Z,1019.492493
2022-07-28T09:44:37.406Z,1019.372253
2022-07-28T09:45:35.503Z,1019.441162
2022-07-28T09:46:30.997Z,1019.395752
2022-07-28T09:48:26.483Z,1019.459229
2022-07-28T09:49:28.625Z,1019.335327
2022-07-28T09:51:06.463Z,1019.314697
2022-07-28T09:53:00.676Z,1019.325562
2022-07-28T09:53:41.128Z,1019.353699
2022-07-28T09:54:41.223Z,1019.322571
2022-07-28T09:55:39.713Z,1019.258301
2022-07-28T09:56:35.625Z,1019.295349
2022-07-28T09:58:33.631Z,1019.30072
2022-07-28T09:58:59.515Z,1019.341431
2022-07-28T09:59:57.429Z,1019.353394
2022-07-28T10:00:58.009Z,1019.360901
2022-07-28T10:01:53.620Z,1019.360413
2022-07-28T10:02:54.135Z,1019.317749
2022-07-28T10:03:49.438Z,1019.290588
2022-07-28T10:04:49.436Z,1019.390503
2022-07-28T10:05:44.916Z,1019.318726
2022-07-28T10:06:45.075Z,1019.35614
2022-07-28T10:07:40.352Z,1019.328857
2022-07-28T10:08:42.637Z,1019.371948
2022-07-28T10:09:35.253Z,1019.357361
2022-07-28T10:10:36.025Z,1019.375671
2022-07-28T10:11:31.296Z,1019.430115
2022-07-28T10:12:33.799Z,1019.35614
2022-07-28T10:13:26.746Z,1019.358582
2022-07-28T10:14:29.395Z,1019.242065
2022-07-28T10:15:31.182Z,1019.273499
2022-07-28T10:15:31.305Z,1019.273499
2022-07-28T10:16:20.604Z,1019.289429
2022-07-28T10:17:21.220Z,1019.288147
2022-07-28T10:18:16.634Z,1019.387573
2022-07-28T10:19:16.536Z,1019.317139
2022-07-28T10:20:11.752Z,1019.259338
2022-07-28T10:21:11.752Z,1019.318359
2022-07-28T10:22:07.156Z,1019.364685
2022-07-28T10:24:02.880Z,1019.30072
2022-07-28T10:25:02.853Z,1019.233704
2022-07-28T10:25:58.070Z,1019.183105
2022-07-28T10:26:58.164Z,1019.097473
2022-07-28T10:28:53.506Z,1019.18042
2022-07-28T10:29:48.730Z,1019.196289
2022-07-28T10:30:48.783Z,1019.234863
2022-07-28T10:31:44.261Z,1019.214783
2022-07-28T10:33:39.340Z,1019.204163
2022-07-28T10:34:42.134Z,1019.157715
2022-07-28T10:35:34.832Z,1019.131348
2022-07-28T10:35:51.015Z,1019.131348
2022-07-28T10:35:54.472Z,1019.131348
2022-07-28T10:36:35.671Z,1019.139343
2022-07-28T10:38:33.650Z,1019.14093
2022-07-28T10:39:26.379Z,1019.122681
2022-07-28T10:40:26.448Z,1019.10376
2022-07-28T10:41:21.723Z,1019.165833
2022-07-28T10:42:21.620Z,1019.13855
2022-07-28T10:43:18.267Z,1019.052307
2022-07-28T10:44:18.859Z,1019.020691
2022-07-28T10:46:04.472Z,1019.009155
2022-07-28T10:46:04.938Z,1019.009155
2022-07-28T10:46:05.549Z,1019.009155
2022-07-28T10:46:23.824Z,1019.025085
2022-07-28T10:48:25.599Z,1019.026489
2022-07-28T10:49:21.557Z,1019.108765
2022-07-28T10:50:17.300Z,1018.979492
2022-07-28T10:51:17.820Z,1019.049866
2022-07-28T10:53:12.291Z,1018.922607
2022-07-28T10:54:17.648Z,1018.972595
2022-07-28T10:54:18.933Z,1018.972595
2022-07-28T10:54:25.066Z,1018.972595
2022-07-28T10:55:13.745Z,1018.977112
2022-07-28T10:56:09.017Z,1019.021118
2022-07-28T10:57:09.169Z,1018.950745
2022-07-28T10:59:05.487Z,1018.973511
2022-07-28T11:00:12.140Z,1018.951782
2022-07-28T11:00:13.255Z,1018.951782
2022-07-28T11:00:14.317Z,1018.951782
2022-07-28T11:01:06.398Z,1018.963196
2022-07-28T11:02:01.261Z,1018.929016
2022-07-28T11:03:57.577Z,1018.940369
2022-07-28T11:04:53.064Z,1018.866211
2022-07-28T11:05:54.909Z,1018.858643
2022-07-28T11:06:50.444Z,1018.888977
2022-07-28T11:07:52.420Z,1018.881897
2022-07-28T11:08:48.015Z,1018.89032
2022-07-28T11:09:48.449Z,1018.844299
2022-07-28T11:10:45.220Z,1018.821533
2022-07-28T11:11:45.417Z,1018.930481
2022-07-28T11:12:41.274Z,1018.972595
2022-07-28T11:13:43.881Z,1018.859192
2022-07-28T11:14:38.110Z,1018.922607
2022-07-28T11:15:35.605Z,1018.85321
2022-07-28T11:16:39.370Z,1018.91217
2022-07-28T11:17:33.492Z,1018.908813
2022-07-28T11:18:33.017Z,1018.951965
2022-07-28T11:19:40.761Z,1018.845276
2022-07-28T11:19:40.774Z,1018.845276
2022-07-28T11:19:51.536Z,1018.845276
2022-07-28T11:20:30.197Z,1018.791748
2022-07-28T11:21:25.727Z,1018.812683
2022-07-28T11:21:39.454Z,1018.812683